Terminal Aerodrome Forecast
Issued by NWS Buffalo, NY

Home | Current Version | Previous Version | Text Only | Print | Product List | Glossary On
Versions: 1 2 3 4 5 6 7 8 9 10 11 12 13 14 15 16 17 18 19 20 21 22 23 24 25
000
FTUS41 KBUF 282327
TAFROC
TAF
KROC 282327Z 2900/2924 VRB04KT P6SM OVC140
     FM290800 VRB03KT P6SM VCSH BKN060
     FM291100 26005KT P6SM BKN040
     FM291700 31010KT P6SM BKN060=

USA.gov is the U.S. government's official web portal to all federal, state and local government web resources and services.